sensor_id;sensor_type;location;lat;lon;timestamp;pressure;altitude;pressure_sealevel;temperature;humidity
74578;BME280;75151;49.086;33.418;2024-02-15T00:01:23;100882.22;;;3.83;56.56
74578;BME280;75151;49.086;33.418;2024-02-15T00:03:50;100882.31;;;3.54;57.11
74578;BME280;75151;49.086;33.418;2024-02-15T00:06:17;100883.75;;;3.47;58.34
74578;BME280;75151;49.086;33.418;2024-02-15T00:08:44;100882.88;;;4.49;57.18
74578;BME280;75151;49.086;33.418;2024-02-15T00:11:11;100879.00;;;4.82;55.24
74578;BME280;75151;49.086;33.418;2024-02-15T00:13:40;100881.50;;;4.65;54.09
74578;BME280;75151;49.086;33.418;2024-02-15T00:16:07;100885.78;;;3.60;57.02
74578;BME280;75151;49.086;33.418;2024-02-15T00:18:34;100881.50;;;5.11;54.06
74578;BME280;75151;49.086;33.418;2024-02-15T00:21:01;100884.00;;;3.92;55.28
74578;BME280;75151;49.086;33.418;2024-02-15T00:23:28;100886.00;;;3.63;55.64
74578;BME280;75151;49.086;33.418;2024-02-15T00:25:55;100889.97;;;4.32;54.61
74578;BME280;75151;49.086;33.418;2024-02-15T00:28:21;100897.53;;;3.13;58.16
74578;BME280;75151;49.086;33.418;2024-02-15T00:30:50;100890.91;;;3.66;57.40
74578;BME280;75151;49.086;33.418;2024-02-15T00:33:17;100891.53;;;3.58;56.18
74578;BME280;75151;49.086;33.418;2024-02-15T00:35:44;100887.03;;;3.49;57.41
74578;BME280;75151;49.086;33.418;2024-02-15T00:38:11;100890.31;;;3.22;58.45
74578;BME280;75151;49.086;33.418;2024-02-15T00:40:38;100891.25;;;3.36;58.24
74578;BME280;75151;49.086;33.418;2024-02-15T00:43:04;100893.50;;;2.72;58.80
74578;BME280;75151;49.086;33.418;2024-02-15T00:45:31;100895.13;;;3.54;57.01
74578;BME280;75151;49.086;33.418;2024-02-15T00:47:58;100889.47;;;2.98;58.53
74578;BME280;75151;49.086;33.418;2024-02-15T00:50:25;100887.69;;;2.83;58.55
74578;BME280;75151;49.086;33.418;2024-02-15T00:52:52;100892.59;;;3.15;57.90
74578;BME280;75151;49.086;33.418;2024-02-15T00:55:18;100904.00;;;2.60;58.93
74578;BME280;75151;49.086;33.418;2024-02-15T00:57:46;100898.16;;;3.05;57.92
74578;BME280;75151;49.086;33.418;2024-02-15T01:00:14;100900.38;;;2.98;57.49
74578;BME280;75151;49.086;33.418;2024-02-15T01:02:41;100898.31;;;2.85;57.58
74578;BME280;75151;49.086;33.418;2024-02-15T01:05:08;100894.19;;;2.59;58.50
74578;BME280;75151;49.086;33.418;2024-02-15T01:07:36;100897.81;;;2.78;58.61
74578;BME280;75151;49.086;33.418;2024-02-15T01:10:03;100904.66;;;2.47;59.76
74578;BME280;75151;49.086;33.418;2024-02-15T01:12:30;100900.78;;;2.81;59.45
74578;BME280;75151;49.086;33.418;2024-02-15T01:14:57;100901.00;;;3.18;57.93
74578;BME280;75151;49.086;33.418;2024-02-15T01:17:24;100901.78;;;2.62;59.69
74578;BME280;75151;49.086;33.418;2024-02-15T01:19:51;100899.72;;;2.49;58.71
74578;BME280;75151;49.086;33.418;2024-02-15T01:22:19;100900.44;;;2.59;59.18
74578;BME280;75151;49.086;33.418;2024-02-15T01:24:53;100910.66;;;3.58;58.11
74578;BME280;75151;49.086;33.418;2024-02-15T01:27:20;100907.78;;;2.92;58.13
74578;BME280;75151;49.086;33.418;2024-02-15T01:29:47;100911.28;;;3.74;56.89
74578;BME280;75151;49.086;33.418;2024-02-15T01:32:14;100924.78;;;4.02;55.07
74578;BME280;75151;49.086;33.418;2024-02-15T01:34:41;100903.16;;;3.45;55.43
74578;BME280;75151;49.086;33.418;2024-02-15T01:37:08;100912.44;;;3.20;57.98
74578;BME280;75151;49.086;33.418;2024-02-15T01:39:35;100907.13;;;2.43;58.50
74578;BME280;75151;49.086;33.418;2024-02-15T01:42:02;100921.19;;;2.55;60.00
74578;BME280;75151;49.086;33.418;2024-02-15T01:44:29;100907.72;;;2.35;59.76
74578;BME280;75151;49.086;33.418;2024-02-15T01:46:57;100919.44;;;3.03;58.38
74578;BME280;75151;49.086;33.418;2024-02-15T01:49:25;100921.91;;;1.88;61.56
74578;BME280;75151;49.086;33.418;2024-02-15T01:51:54;100924.72;;;2.17;61.22
74578;BME280;75151;49.086;33.418;2024-02-15T01:54:23;100916.19;;;2.28;60.66
74578;BME280;75151;49.086;33.418;2024-02-15T01:56:52;100928.75;;;2.29;60.55
74578;BME280;75151;49.086;33.418;2024-02-15T01:59:19;100934.22;;;1.71;62.64
74578;BME280;75151;49.086;33.418;2024-02-15T02:01:48;100927.34;;;1.83;59.90
74578;BME280;75151;49.086;33.418;2024-02-15T02:04:15;100921.16;;;2.21;60.11
74578;BME280;75151;49.086;33.418;2024-02-15T02:06:42;100931.78;;;3.24;58.39
74578;BME280;75151;49.086;33.418;2024-02-15T02:09:12;100928.88;;;2.04;59.61
74578;BME280;75151;49.086;33.418;2024-02-15T02:11:44;100937.38;;;3.38;57.93
74578;BME280;75151;49.086;33.418;2024-02-15T02:14:12;100938.94;;;2.86;57.48
74578;BME280;75151;49.086;33.418;2024-02-15T02:16:39;100933.00;;;3.08;58.36
74578;BME280;75151;49.086;33.418;2024-02-15T02:19:06;100936.75;;;2.55;58.80
74578;BME280;75151;49.086;33.418;2024-02-15T02:21:36;100935.63;;;2.89;58.74
74578;BME280;75151;49.086;33.418;2024-02-15T02:24:03;100938.47;;;2.74;57.11
74578;BME280;75151;49.086;33.418;2024-02-15T02:26:34;100931.84;;;3.19;58.28
74578;BME280;75151;49.086;33.418;2024-02-15T02:29:01;100933.13;;;3.50;55.43
74578;BME280;75151;49.086;33.418;2024-02-15T02:31:34;100937.22;;;4.13;54.97
74578;BME280;75151;49.086;33.418;2024-02-15T02:34:01;100944.38;;;2.53;58.32
74578;BME280;75151;49.086;33.418;2024-02-15T02:36:28;100950.63;;;2.53;58.02
74578;BME280;75151;49.086;33.418;2024-02-15T02:38:56;100943.69;;;3.04;57.03
74578;BME280;75151;49.086;33.418;2024-02-15T02:41:28;100951.88;;;3.80;55.22
74578;BME280;75151;49.086;33.418;2024-02-15T02:43:58;100949.66;;;3.35;56.48
74578;BME280;75151;49.086;33.418;2024-02-15T02:46:25;100950.78;;;3.34;56.46
74578;BME280;75151;49.086;33.418;2024-02-15T02:48:52;100952.25;;;4.35;54.93
74578;BME280;75151;49.086;33.418;2024-02-15T02:51:19;100947.13;;;2.81;56.93
74578;BME280;75151;49.086;33.418;2024-02-15T02:53:46;100953.50;;;3.05;55.67
74578;BME280;75151;49.086;33.418;2024-02-15T02:56:13;100958.00;;;3.20;58.36
74578;BME280;75151;49.086;33.418;2024-02-15T02:58:39;100960.16;;;2.89;57.46
74578;BME280;75151;49.086;33.418;2024-02-15T03:01:10;100961.69;;;3.81;56.16
74578;BME280;75151;49.086;33.418;2024-02-15T03:03:40;100955.88;;;3.41;56.23
74578;BME280;75151;49.086;33.418;2024-02-15T03:06:07;100954.28;;;1.90;58.60
74578;BME280;75151;49.086;33.418;2024-02-15T03:08:34;100952.09;;;1.87;59.41
74578;BME280;75151;49.086;33.418;2024-02-15T03:11:01;100958.66;;;2.73;59.15
74578;BME280;75151;49.086;33.418;2024-02-15T03:13:29;100958.63;;;3.12;56.67
74578;BME280;75151;49.086;33.418;2024-02-15T03:15:55;100960.94;;;2.22;58.98
74578;BME280;75151;49.086;33.418;2024-02-15T03:18:22;100962.38;;;2.00;60.03
74578;BME280;75151;49.086;33.418;2024-02-15T03:20:51;100955.00;;;1.36;61.13
74578;BME280;75151;49.086;33.418;2024-02-15T03:23:18;100962.25;;;1.76;59.50
74578;BME280;75151;49.086;33.418;2024-02-15T03:25:45;100964.53;;;2.52;58.78
74578;BME280;75151;49.086;33.418;2024-02-15T03:28:11;100965.41;;;2.42;57.23
74578;BME280;75151;49.086;33.418;2024-02-15T03:30:38;100966.28;;;1.84;58.95
74578;BME280;75151;49.086;33.418;2024-02-15T03:33:05;100964.03;;;2.83;56.42
74578;BME280;75151;49.086;33.418;2024-02-15T03:35:34;100969.09;;;3.00;57.45
74578;BME280;75151;49.086;33.418;2024-02-15T03:38:01;100979.81;;;2.53;57.14
74578;BME280;75151;49.086;33.418;2024-02-15T03:40:28;100973.97;;;2.64;58.00
74578;BME280;75151;49.086;33.418;2024-02-15T03:42:57;100973.50;;;2.57;57.38
74578;BME280;75151;49.086;33.418;2024-02-15T03:45:23;100976.09;;;2.77;57.24
74578;BME280;75151;49.086;33.418;2024-02-15T03:47:53;100984.28;;;2.72;57.38
74578;BME280;75151;49.086;33.418;2024-02-15T03:50:21;100978.28;;;3.09;55.74
74578;BME280;75151;49.086;33.418;2024-02-15T03:52:49;100976.81;;;2.05;58.16
74578;BME280;75151;49.086;33.418;2024-02-15T03:55:17;100984.34;;;1.39;59.98
74578;BME280;75151;49.086;33.418;2024-02-15T03:57:44;100974.91;;;2.50;58.05
74578;BME280;75151;49.086;33.418;2024-02-15T04:00:12;100983.97;;;3.65;56.13
74578;BME280;75151;49.086;33.418;2024-02-15T04:02:41;100986.13;;;3.44;54.73
74578;BME280;75151;49.086;33.418;2024-02-15T04:05:09;100985.25;;;2.53;56.91
74578;BME280;75151;49.086;33.418;2024-02-15T04:07:38;100985.25;;;2.04;57.94
74578;BME280;75151;49.086;33.418;2024-02-15T04:10:05;100991.72;;;2.62;57.45
74578;BME280;75151;49.086;33.418;2024-02-15T04:12:33;100985.72;;;3.03;56.14
74578;BME280;75151;49.086;33.418;2024-02-15T04:15:00;100989.25;;;3.33;54.24
74578;BME280;75151;49.086;33.418;2024-02-15T04:17:40;100999.22;;;3.94;54.90
74578;BME280;75151;49.086;33.418;2024-02-15T04:20:09;100997.53;;;3.51;54.61
74578;BME280;75151;49.086;33.418;2024-02-15T04:22:37;101001.34;;;2.88;56.65
74578;BME280;75151;49.086;33.418;2024-02-15T04:25:05;101003.31;;;2.39;58.54
74578;BME280;75151;49.086;33.418;2024-02-15T04:27:33;101002.22;;;3.17;57.76
74578;BME280;75151;49.086;33.418;2024-02-15T04:30:01;100992.72;;;2.32;56.84
74578;BME280;75151;49.086;33.418;2024-02-15T04:32:30;101003.91;;;3.13;55.21
74578;BME280;75151;49.086;33.418;2024-02-15T04:35:01;100996.78;;;2.78;57.40
74578;BME280;75151;49.086;33.418;2024-02-15T04:37:29;101007.56;;;2.60;56.89
74578;BME280;75151;49.086;33.418;2024-02-15T04:39:59;101014.47;;;2.42;58.04
74578;BME280;75151;49.086;33.418;2024-02-15T04:42:34;101009.22;;;2.07;57.29
74578;BME280;75151;49.086;33.418;2024-02-15T04:45:03;101010.22;;;1.12;59.68
74578;BME280;75151;49.086;33.418;2024-02-15T04:47:31;101020.50;;;3.16;55.64
74578;BME280;75151;49.086;33.418;2024-02-15T04:49:58;101021.31;;;2.35;57.53
74578;BME280;75151;49.086;33.418;2024-02-15T04:52:25;101019.84;;;1.98;58.80
74578;BME280;75151;49.086;33.418;2024-02-15T04:54:51;101031.75;;;3.39;55.84
74578;BME280;75151;49.086;33.418;2024-02-15T04:57:21;101031.13;;;2.30;57.01
74578;BME280;75151;49.086;33.418;2024-02-15T04:59:48;101030.28;;;1.76;58.54
74578;BME280;75151;49.086;33.418;2024-02-15T05:02:16;101036.84;;;1.65;58.78
74578;BME280;75151;49.086;33.418;2024-02-15T05:04:43;101043.53;;;2.03;57.89
74578;BME280;75151;49.086;33.418;2024-02-15T05:07:10;101049.06;;;1.58;59.07
74578;BME280;75151;49.086;33.418;2024-02-15T05:09:37;101051.72;;;1.98;58.51
74578;BME280;75151;49.086;33.418;2024-02-15T05:12:04;101052.78;;;2.99;56.58
74578;BME280;75151;49.086;33.418;2024-02-15T05:14:32;101056.84;;;3.69;53.43
74578;BME280;75151;49.086;33.418;2024-02-15T05:16:59;101068.94;;;2.91;55.55
74578;BME280;75151;49.086;33.418;2024-02-15T05:19:27;101061.84;;;2.46;57.18
74578;BME280;75151;49.086;33.418;2024-02-15T05:21:54;101058.03;;;2.91;57.18
74578;BME280;75151;49.086;33.418;2024-02-15T05:24:22;101069.03;;;2.76;56.61
74578;BME280;75151;49.086;33.418;2024-02-15T05:26:49;101070.03;;;2.90;57.59
74578;BME280;75151;49.086;33.418;2024-02-15T05:29:17;101069.22;;;2.46;58.01
74578;BME280;75151;49.086;33.418;2024-02-15T05:31:43;101080.19;;;2.30;58.36
74578;BME280;75151;49.086;33.418;2024-02-15T05:34:11;101082.00;;;3.33;57.31
74578;BME280;75151;49.086;33.418;2024-02-15T05:36:39;101088.19;;;2.61;57.12
74578;BME280;75151;49.086;33.418;2024-02-15T05:39:06;101085.97;;;3.16;57.44
74578;BME280;75151;49.086;33.418;2024-02-15T05:41:34;101086.38;;;2.46;57.18
74578;BME280;75151;49.086;33.418;2024-02-15T05:44:01;101084.13;;;1.94;58.19
74578;BME280;75151;49.086;33.418;2024-02-15T05:46:31;101095.66;;;2.89;56.67
74578;BME280;75151;49.086;33.418;2024-02-15T05:48:58;101098.22;;;2.70;56.62
74578;BME280;75151;49.086;33.418;2024-02-15T05:51:26;101090.00;;;3.24;56.32
74578;BME280;75151;49.086;33.418;2024-02-15T05:53:53;101091.00;;;3.33;56.81
74578;BME280;75151;49.086;33.418;2024-02-15T05:56:25;101098.16;;;2.26;55.96
74578;BME280;75151;49.086;33.418;2024-02-15T05:58:57;101098.88;;;2.47;58.61
74578;BME280;75151;49.086;33.418;2024-02-15T06:01:24;101100.63;;;2.23;57.82
74578;BME280;75151;49.086;33.418;2024-02-15T06:03:51;101104.78;;;2.10;58.13
74578;BME280;75151;49.086;33.418;2024-02-15T06:06:21;101098.38;;;2.45;58.23
74578;BME280;75151;49.086;33.418;2024-02-15T06:08:49;101102.91;;;1.91;59.36
74578;BME280;75151;49.086;33.418;2024-02-15T06:11:19;101107.38;;;2.94;56.86
74578;BME280;75151;49.086;33.418;2024-02-15T06:13:47;101101.50;;;2.08;56.21
74578;BME280;75151;49.086;33.418;2024-02-15T06:16:14;101109.06;;;2.32;57.72
74578;BME280;75151;49.086;33.418;2024-02-15T06:18:41;101113.47;;;2.22;57.47
74578;BME280;75151;49.086;33.418;2024-02-15T06:21:08;101105.34;;;2.02;58.23
74578;BME280;75151;49.086;33.418;2024-02-15T06:23:35;101105.94;;;1.34;61.00
74578;BME280;75151;49.086;33.418;2024-02-15T06:26:04;101119.53;;;1.09;60.60
74578;BME280;75151;49.086;33.418;2024-02-15T06:28:31;101111.81;;;2.21;58.61
74578;BME280;75151;49.086;33.418;2024-02-15T06:31:17;101107.22;;;2.02;57.82
74578;BME280;75151;49.086;33.418;2024-02-15T06:34:02;101110.53;;;2.68;57.31
74578;BME280;75151;49.086;33.418;2024-02-15T06:36:53;101114.31;;;2.08;56.97
74578;BME280;75151;49.086;33.418;2024-02-15T06:39:38;101117.47;;;2.89;56.09
74578;BME280;75151;49.086;33.418;2024-02-15T06:42:09;101115.69;;;2.05;58.34
74578;BME280;75151;49.086;33.418;2024-02-15T06:44:38;101124.09;;;2.78;55.26
74578;BME280;75151;49.086;33.418;2024-02-15T06:47:07;101117.16;;;3.39;54.40
74578;BME280;75151;49.086;33.418;2024-02-15T06:49:40;101118.53;;;3.03;54.74
74578;BME280;75151;49.086;33.418;2024-02-15T06:52:08;101125.28;;;3.10;54.72
74578;BME280;75151;49.086;33.418;2024-02-15T06:54:35;101120.09;;;1.86;58.75
74578;BME280;75151;49.086;33.418;2024-02-15T06:57:02;101130.59;;;2.23;57.34
74578;BME280;75151;49.086;33.418;2024-02-15T06:59:31;101136.69;;;1.29;59.88
74578;BME280;75151;49.086;33.418;2024-02-15T07:01:59;101142.09;;;1.04;60.14
74578;BME280;75151;49.086;33.418;2024-02-15T07:04:26;101137.44;;;2.10;58.52
74578;BME280;75151;49.086;33.418;2024-02-15T07:06:53;101148.91;;;2.76;55.91
74578;BME280;75151;49.086;33.418;2024-02-15T07:09:24;101145.66;;;1.45;57.21
74578;BME280;75151;49.086;33.418;2024-02-15T07:11:52;101143.22;;;1.94;57.93
74578;BME280;75151;49.086;33.418;2024-02-15T07:14:19;101143.41;;;2.22;57.09
74578;BME280;75151;49.086;33.418;2024-02-15T07:16:47;101144.56;;;1.91;57.90
74578;BME280;75151;49.086;33.418;2024-02-15T07:19:14;101146.75;;;1.89;57.25
74578;BME280;75151;49.086;33.418;2024-02-15T07:21:43;101147.56;;;1.80;57.16
74578;BME280;75151;49.086;33.418;2024-02-15T07:24:10;101146.19;;;1.92;57.26
74578;BME280;75151;49.086;33.418;2024-02-15T07:26:37;101145.03;;;0.98;59.75
74578;BME280;75151;49.086;33.418;2024-02-15T07:29:04;101143.72;;;2.06;58.79
74578;BME280;75151;49.086;33.418;2024-02-15T07:31:35;101151.91;;;1.91;58.33
74578;BME280;75151;49.086;33.418;2024-02-15T07:34:02;101154.38;;;1.87;57.15
74578;BME280;75151;49.086;33.418;2024-02-15T07:36:32;101158.75;;;2.72;56.97
74578;BME280;75151;49.086;33.418;2024-02-15T07:38:59;101156.53;;;1.45;57.75
74578;BME280;75151;49.086;33.418;2024-02-15T07:41:31;101159.84;;;1.72;58.18
74578;BME280;75151;49.086;33.418;2024-02-15T07:44:00;101166.06;;;1.27;59.24
74578;BME280;75151;49.086;33.418;2024-02-15T07:46:28;101162.81;;;1.76;58.58
74578;BME280;75151;49.086;33.418;2024-02-15T07:48:55;101156.47;;;2.25;58.06
74578;BME280;75151;49.086;33.418;2024-02-15T07:51:25;101159.28;;;1.90;57.48
74578;BME280;75151;49.086;33.418;2024-02-15T07:53:52;101163.03;;;2.88;56.66
74578;BME280;75151;49.086;33.418;2024-02-15T07:56:19;101166.00;;;2.92;55.53
74578;BME280;75151;49.086;33.418;2024-02-15T07:58:48;101167.41;;;2.84;55.96
74578;BME280;75151;49.086;33.418;2024-02-15T08:01:20;101164.16;;;2.03;56.54
74578;BME280;75151;49.086;33.418;2024-02-15T08:03:52;101174.91;;;2.54;55.30
74578;BME280;75151;49.086;33.418;2024-02-15T08:06:21;101179.44;;;0.52;60.14
74578;BME280;75151;49.086;33.418;2024-02-15T08:08:52;101178.81;;;1.32;57.58
74578;BME280;75151;49.086;33.418;2024-02-15T08:11:19;101173.59;;;2.36;55.84
74578;BME280;75151;49.086;33.418;2024-02-15T08:13:51;101183.25;;;1.78;57.40
74578;BME280;75151;49.086;33.418;2024-02-15T08:16:22;101186.22;;;1.47;57.85
74578;BME280;75151;49.086;33.418;2024-02-15T08:18:50;101186.88;;;2.58;55.83
74578;BME280;75151;49.086;33.418;2024-02-15T08:21:26;101187.47;;;2.40;56.00
74578;BME280;75151;49.086;33.418;2024-02-15T08:23:53;101193.44;;;3.15;54.41
74578;BME280;75151;49.086;33.418;2024-02-15T08:26:22;101188.41;;;1.95;55.89
74578;BME280;75151;49.086;33.418;2024-02-15T08:28:49;101194.53;;;2.56;54.37
74578;BME280;75151;49.086;33.418;2024-02-15T08:31:16;101195.00;;;2.73;55.03
74578;BME280;75151;49.086;33.418;2024-02-15T08:33:43;101187.94;;;2.67;54.89
74578;BME280;75151;49.086;33.418;2024-02-15T08:36:12;101191.34;;;2.13;56.19
74578;BME280;75151;49.086;33.418;2024-02-15T08:38:40;101198.34;;;3.13;54.64
74578;BME280;75151;49.086;33.418;2024-02-15T08:41:07;101189.63;;;3.16;54.34
74578;BME280;75151;49.086;33.418;2024-02-15T08:43:35;101195.75;;;1.74;56.64
74578;BME280;75151;49.086;33.418;2024-02-15T08:46:04;101202.53;;;2.96;55.74
74578;BME280;75151;49.086;33.418;2024-02-15T08:48:32;101195.28;;;3.25;53.82
74578;BME280;75151;49.086;33.418;2024-02-15T08:51:00;101200.66;;;1.97;56.05
74578;BME280;75151;49.086;33.418;2024-02-15T08:53:27;101203.06;;;2.14;56.04
74578;BME280;75151;49.086;33.418;2024-02-15T08:55:54;101207.97;;;2.12;57.33
74578;BME280;75151;49.086;33.418;2024-02-15T08:58:20;101200.34;;;2.93;53.72
74578;BME280;75151;49.086;33.418;2024-02-15T09:00:50;101196.06;;;2.77;54.50
74578;BME280;75151;49.086;33.418;2024-02-15T09:03:17;101193.44;;;3.15;52.39
74578;BME280;75151;49.086;33.418;2024-02-15T09:05:45;101194.75;;;3.28;52.76
74578;BME280;75151;49.086;33.418;2024-02-15T09:08:12;101188.91;;;2.02;56.55
74578;BME280;75151;49.086;33.418;2024-02-15T09:10:39;101187.75;;;2.43;55.66
74578;BME280;75151;49.086;33.418;2024-02-15T09:13:06;101182.91;;;2.89;54.48
74578;BME280;75151;49.086;33.418;2024-02-15T09:15:33;101180.16;;;2.99;54.54
74578;BME280;75151;49.086;33.418;2024-02-15T09:18:00;101188.47;;;2.69;56.34
74578;BME280;75151;49.086;33.418;2024-02-15T09:20:27;101179.00;;;2.56;55.39
74578;BME280;75151;49.086;33.418;2024-02-15T09:22:55;101174.88;;;2.64;55.24
74578;BME280;75151;49.086;33.418;2024-02-15T09:25:23;101179.56;;;3.51;53.19
74578;BME280;75151;49.086;33.418;2024-02-15T09:27:51;101173.34;;;3.45;54.11
74578;BME280;75151;49.086;33.418;2024-02-15T09:30:20;101176.41;;;2.85;53.50
74578;BME280;75151;49.086;33.418;2024-02-15T09:32:47;101173.91;;;2.93;54.52
74578;BME280;75151;49.086;33.418;2024-02-15T09:35:14;101173.81;;;2.55;54.79
74578;BME280;75151;49.086;33.418;2024-02-15T09:37:45;101177.03;;;3.26;53.59
74578;BME280;75151;49.086;33.418;2024-02-15T09:40:13;101169.84;;;2.12;56.90
74578;BME280;75151;49.086;33.418;2024-02-15T09:42:42;101168.78;;;1.53;56.86
74578;BME280;75151;49.086;33.418;2024-02-15T09:45:12;101173.16;;;1.89;56.39
74578;BME280;75151;49.086;33.418;2024-02-15T09:47:39;101174.19;;;3.41;55.24
74578;BME280;75151;49.086;33.418;2024-02-15T09:50:16;101172.94;;;3.23;55.13
74578;BME280;75151;49.086;33.418;2024-02-15T09:52:51;101176.03;;;3.06;52.93
74578;BME280;75151;49.086;33.418;2024-02-15T09:55:20;101177.03;;;3.59;53.42
74578;BME280;75151;49.086;33.418;2024-02-15T09:57:50;101180.91;;;3.53;51.88
74578;BME280;75151;49.086;33.418;2024-02-15T10:00:18;101179.94;;;3.73;51.61
74578;BME280;75151;49.086;33.418;2024-02-15T10:02:48;101185.34;;;3.05;52.92
74578;BME280;75151;49.086;33.418;2024-02-15T10:05:17;101189.56;;;3.65;52.28
74578;BME280;75151;49.086;33.418;2024-02-15T10:07:45;101192.41;;;3.01;54.57
74578;BME280;75151;49.086;33.418;2024-02-15T10:10:23;101190.69;;;2.62;54.67
74578;BME280;75151;49.086;33.418;2024-02-15T10:12:51;101190.81;;;2.95;54.87
74578;BME280;75151;49.086;33.418;2024-02-15T10:15:37;101199.03;;;3.39;53.57
74578;BME280;75151;49.086;33.418;2024-02-15T10:18:09;101203.03;;;3.52;51.82
74578;BME280;75151;49.086;33.418;2024-02-15T10:20:42;101204.78;;;2.79;55.17
74578;BME280;75151;49.086;33.418;2024-02-15T10:23:16;101208.78;;;2.96;52.71
74578;BME280;75151;49.086;33.418;2024-02-15T10:25:45;101208.66;;;1.02;59.43
74578;BME280;75151;49.086;33.418;2024-02-15T10:28:14;101211.97;;;1.19;58.90
74578;BME280;75151;49.086;33.418;2024-02-15T10:30:43;101206.88;;;2.23;55.62
74578;BME280;75151;49.086;33.418;2024-02-15T10:33:21;101207.63;;;2.44;55.16
74578;BME280;75151;49.086;33.418;2024-02-15T10:36:05;101217.06;;;2.76;55.73
74578;BME280;75151;49.086;33.418;2024-02-15T10:38:35;101214.06;;;3.70;52.24
74578;BME280;75151;49.086;33.418;2024-02-15T10:41:06;101219.13;;;3.09;54.12
74578;BME280;75151;49.086;33.418;2024-02-15T10:43:34;101215.22;;;2.62;55.86
74578;BME280;75151;49.086;33.418;2024-02-15T10:46:00;101211.69;;;3.20;53.43
74578;BME280;75151;49.086;33.418;2024-02-15T10:48:27;101210.94;;;2.36;55.50
74578;BME280;75151;49.086;33.418;2024-02-15T10:50:56;101217.13;;;3.25;54.66
74578;BME280;75151;49.086;33.418;2024-02-15T10:53:30;101216.50;;;2.84;54.94
74578;BME280;75151;49.086;33.418;2024-02-15T10:58:42;101212.28;;;3.17;53.78
74578;BME280;75151;49.086;33.418;2024-02-15T11:01:17;101221.28;;;1.48;57.85
74578;BME280;75151;49.086;33.418;2024-02-15T11:03:51;101219.72;;;1.67;57.73
74578;BME280;75151;49.086;33.418;2024-02-15T11:06:20;101212.63;;;1.91;58.92
74578;BME280;75151;49.086;33.418;2024-02-15T11:08:48;101217.81;;;1.73;57.52
74578;BME280;75151;49.086;33.418;2024-02-15T11:11:16;101214.47;;;2.36;55.80
74578;BME280;75151;49.086;33.418;2024-02-15T11:13:46;101215.34;;;1.76;57.90
74578;BME280;75151;49.086;33.418;2024-02-15T11:16:43;101214.28;;;1.67;59.44
74578;BME280;75151;49.086;33.418;2024-02-15T11:22:10;101216.69;;;2.14;57.03
74578;BME280;75151;49.086;33.418;2024-02-15T11:24:46;101216.41;;;3.04;55.96
74578;BME280;75151;49.086;33.418;2024-02-15T11:27:24;101216.38;;;2.41;56.83
74578;BME280;75151;49.086;33.418;2024-02-15T11:32:48;101221.31;;;2.13;56.20
74578;BME280;75151;49.086;33.418;2024-02-15T11:35:24;101219.81;;;2.66;55.86
74578;BME280;75151;49.086;33.418;2024-02-15T11:37:57;101213.03;;;3.66;53.48
74578;BME280;75151;49.086;33.418;2024-02-15T11:43:08;101223.53;;;0.79;58.62
74578;BME280;75151;49.086;33.418;2024-02-15T11:45:36;101236.06;;;0.85;61.15
74578;BME280;75151;49.086;33.418;2024-02-15T11:48:13;101227.84;;;2.17;58.28
74578;BME280;75151;49.086;33.418;2024-02-15T11:50:41;101229.56;;;2.87;55.11
74578;BME280;75151;49.086;33.418;2024-02-15T11:53:09;101236.56;;;1.79;56.94
74578;BME280;75151;49.086;33.418;2024-02-15T11:55:38;101231.13;;;1.89;57.41
74578;BME280;75151;49.086;33.418;2024-02-15T11:58:06;101241.56;;;1.05;59.71
74578;BME280;75151;49.086;33.418;2024-02-15T12:00:39;101242.50;;;1.46;58.83
74578;BME280;75151;49.086;33.418;2024-02-15T12:03:25;101235.75;;;2.14;57.86
74578;BME280;75151;49.086;33.418;2024-02-15T12:06:28;101237.03;;;2.62;56.92
74578;BME280;75151;49.086;33.418;2024-02-15T12:09:19;101238.16;;;1.40;59.39
74578;BME280;75151;49.086;33.418;2024-02-15T12:12:05;101244.13;;;2.48;56.69
74578;BME280;75151;49.086;33.418;2024-02-15T12:14:59;101242.81;;;2.35;57.09
74578;BME280;75151;49.086;33.418;2024-02-15T12:17:44;101247.91;;;3.36;54.98
74578;BME280;75151;49.086;33.418;2024-02-15T12:20:30;101236.19;;;3.69;52.40
74578;BME280;75151;49.086;33.418;2024-02-15T12:22:58;101244.47;;;3.10;52.83
74578;BME280;75151;49.086;33.418;2024-02-15T12:25:27;101243.13;;;3.02;54.84
74578;BME280;75151;49.086;33.418;2024-02-15T12:27:59;101240.31;;;2.44;56.67
74578;BME280;75151;49.086;33.418;2024-02-15T12:30:32;101243.41;;;1.77;55.56
74578;BME280;75151;49.086;33.418;2024-02-15T12:33:12;101240.09;;;2.20;56.39
74578;BME280;75151;49.086;33.418;2024-02-15T12:35:46;101238.69;;;3.27;55.10
74578;BME280;75151;49.086;33.418;2024-02-15T12:38:13;101234.34;;;2.37;54.75
74578;BME280;75151;49.086;33.418;2024-02-15T12:40:44;101236.84;;;3.12;53.63
74578;BME280;75151;49.086;33.418;2024-02-15T12:43:15;101237.16;;;2.95;53.30
74578;BME280;75151;49.086;33.418;2024-02-15T12:45:42;101234.84;;;2.54;56.26
74578;BME280;75151;49.086;33.418;2024-02-15T12:48:09;101243.38;;;2.12;55.90
74578;BME280;75151;49.086;33.418;2024-02-15T12:50:38;101242.03;;;2.14;55.05
74578;BME280;75151;49.086;33.418;2024-02-15T12:53:05;101240.94;;;2.00;55.18
74578;BME280;75151;49.086;33.418;2024-02-15T12:55:34;101240.50;;;3.36;55.28
74578;BME280;75151;49.086;33.418;2024-02-15T12:58:03;101238.94;;;3.30;54.95
74578;BME280;75151;49.086;33.418;2024-02-15T13:00:31;101245.25;;;2.37;54.99
74578;BME280;75151;49.086;33.418;2024-02-15T13:03:02;101244.75;;;2.04;55.84
74578;BME280;75151;49.086;33.418;2024-02-15T13:05:31;101256.63;;;1.43;59.25
74578;BME280;75151;49.086;33.418;2024-02-15T13:07:59;101246.41;;;1.90;57.32
74578;BME280;75151;49.086;33.418;2024-02-15T13:10:30;101262.34;;;1.31;57.06
74578;BME280;75151;49.086;33.418;2024-02-15T13:12:58;101261.03;;;1.54;56.80